Terminal Aerodrome Forecast
Issued by NWS

Home | Current Version | Previous Version | Text Only | Print | Product List | Glossary On
Versions: 1 2 3 4 5 6 7 8 9 10 11 12 13 14
000
FTUS41 KBTV 220531
TAFMSS
TAF
KMSS 220531Z 2206/2306 24008KT P6SM OVC090
     FM221200 33012G20KT P6SM BKN050 OVC090
     FM221800 30014G22KT P6SM SCT070
     FM230000 29006KT P6SM SCT070=

USA.gov is the U.S. government's official web portal to all federal, state and local government web resources and services.